createdAt,value
2022-09-26T00:00:17.494Z,10.60
2022-09-26T00:04:32.620Z,5.35
2022-09-26T00:08:37.183Z,13.10
2022-09-26T00:12:47.733Z,5.40
2022-09-26T00:16:57.720Z,5.47
2022-09-26T00:21:11.644Z,5.93
2022-09-26T00:25:27.655Z,5.95
2022-09-26T00:29:38.703Z,5.40
2022-09-26T00:33:48.648Z,8.43
2022-09-26T00:37:58.660Z,6.40
2022-09-26T00:42:08.654Z,8.23
2022-09-26T00:46:24.424Z,6.95
2022-09-26T00:50:37.678Z,8.15
2022-09-26T00:54:51.670Z,10.18
2022-09-26T00:59:06.646Z,8.13
2022-09-26T01:03:17.985Z,10.10
2022-09-26T01:07:25.055Z,10.00
2022-09-26T01:11:36.649Z,8.70
2022-09-26T01:15:46.659Z,11.00
2022-09-26T01:20:04.667Z,10.05
2022-09-26T01:24:43.967Z,12.40
2022-09-26T01:29:20.650Z,7.53
2022-09-26T01:33:43.668Z,9.25
2022-09-26T01:38:01.654Z,9.25
2022-09-26T01:42:21.919Z,11.52
2022-09-26T01:46:31.011Z,7.53
2022-09-26T01:50:46.667Z,11.02
2022-09-26T01:55:02.849Z,13.77
2022-09-26T01:59:17.662Z,18.13
2022-09-26T02:03:33.659Z,11.18
2022-09-26T02:07:43.222Z,13.50
2022-09-26T02:11:57.950Z,13.25
2022-09-26T02:16:09.989Z,15.48
2022-09-26T02:20:23.658Z,18.17
2022-09-26T02:24:42.639Z,20.40
2022-09-26T02:28:52.733Z,17.80
2022-09-26T02:33:02.660Z,16.92
2022-09-26T02:37:12.652Z,18.25
2022-09-26T02:41:30.654Z,15.77
2022-09-26T02:45:48.729Z,13.55
2022-09-26T02:50:18.658Z,13.07
2022-09-26T02:54:29.352Z,13.75
2022-09-26T02:58:48.678Z,14.32
2022-09-26T03:03:12.655Z,14.40
2022-09-26T03:07:28.664Z,10.23
2022-09-26T03:11:40.665Z,8.80
2022-09-26T03:15:56.772Z,12.30
2022-09-26T03:20:10.664Z,7.63
2022-09-26T03:24:20.683Z,9.25
2022-09-26T03:28:35.322Z,9.00
2022-09-26T03:32:41.998Z,10.27
2022-09-26T03:36:51.678Z,9.60
2022-09-26T03:41:01.895Z,11.70
2022-09-26T03:45:16.670Z,10.50
2022-09-26T03:49:27.713Z,10.07
2022-09-26T03:53:39.655Z,8.48
2022-09-26T03:57:42.692Z,9.07
2022-09-26T04:01:52.785Z,9.82
2022-09-26T04:06:10.664Z,9.68
2022-09-26T04:10:20.676Z,9.35
2022-09-26T04:14:30.667Z,9.30
2022-09-26T04:18:41.667Z,14.02
2022-09-26T04:22:46.067Z,8.15
2022-09-26T04:26:55.672Z,10.48
2022-09-26T04:30:59.078Z,11.02
2022-09-26T04:35:08.669Z,17.50
2022-09-26T04:39:19.660Z,11.75
2022-09-26T04:43:28.673Z,13.52
2022-09-26T04:47:38.654Z,10.55
2022-09-26T04:51:48.684Z,10.90
2022-09-26T04:56:01.682Z,9.00
2022-09-26T05:00:13.674Z,11.32
2022-09-26T05:04:29.662Z,11.27
2022-09-26T05:08:39.682Z,13.90
2022-09-26T05:12:50.685Z,11.70
2022-09-26T05:16:53.751Z,14.27
2022-09-26T05:21:04.706Z,11.13
2022-09-26T05:25:25.933Z,11.05
2022-09-26T05:29:36.703Z,14.30
2022-09-26T05:33:46.716Z,10.57
2022-09-26T05:37:56.670Z,8.48
2022-09-26T05:42:06.675Z,17.35
2022-09-26T05:46:18.770Z,11.10
2022-09-26T05:50:31.674Z,12.60
2022-09-26T05:54:41.702Z,13.55
2022-09-26T05:58:51.683Z,16.05
2022-09-26T06:03:07.683Z,12.30
2022-09-26T06:07:17.726Z,11.35
2022-09-26T06:11:29.738Z,8.48
2022-09-26T06:15:32.843Z,9.27
2022-09-26T06:19:43.700Z,12.20
2022-09-26T06:23:47.281Z,13.88
2022-09-26T06:28:00.029Z,11.23
2022-09-26T06:32:09.722Z,13.27
2022-09-26T06:36:20.705Z,7.85
2022-09-26T06:40:23.723Z,12.13
2022-09-26T06:44:33.673Z,14.27
2022-09-26T06:48:43.762Z,5.40
2022-09-26T06:52:54.693Z,9.30
2022-09-26T06:56:57.811Z,13.13
2022-09-26T07:01:07.737Z,7.68
2022-09-26T07:05:18.022Z,10.05
2022-09-26T07:09:28.681Z,13.00
2022-09-26T07:13:38.678Z,8.40
2022-09-26T07:17:48.671Z,11.52
2022-09-26T07:21:58.710Z,9.52
2022-09-26T07:26:10.695Z,13.95
2022-09-26T07:30:20.686Z,12.13
2022-09-26T07:34:31.748Z,4.65
2022-09-26T07:38:34.826Z,8.65
2022-09-26T07:43:04.004Z,7.38
2022-09-26T07:47:32.680Z,14.05
2022-09-26T07:51:43.689Z,7.07
2022-09-26T07:56:12.671Z,5.55
2022-09-26T08:00:26.674Z,5.00
2022-09-26T08:04:42.696Z,5.80
2022-09-26T08:08:52.689Z,3.63
2022-09-26T08:13:03.686Z,10.30
2022-09-26T08:17:15.681Z,4.30
2022-09-26T08:21:19.131Z,6.68
2022-09-26T08:25:28.871Z,3.95
2022-09-26T08:29:38.702Z,2.85
2022-09-26T08:33:50.679Z,4.05
2022-09-26T08:38:00.863Z,8.15
2022-09-26T08:42:27.682Z,6.43
2022-09-26T08:46:55.741Z,8.55
2022-09-26T08:51:10.733Z,1.88
2022-09-26T08:55:23.679Z,3.42
2022-09-26T08:59:31.141Z,4.65
2022-09-26T09:03:45.776Z,1.75
2022-09-26T09:08:06.675Z,4.55
2022-09-26T09:12:25.469Z,8.52
2022-09-26T09:16:52.687Z,7.10
2022-09-26T09:21:06.681Z,5.80
2022-09-26T09:25:24.715Z,4.88
2022-09-26T09:29:52.699Z,3.88
2022-09-26T09:34:06.782Z,4.05
2022-09-26T09:38:22.693Z,4.63
2022-09-26T09:42:38.689Z,5.18
2022-09-26T09:46:50.796Z,5.03
2022-09-26T09:51:05.727Z,4.68
2022-09-26T09:55:33.697Z,5.68
2022-09-26T10:00:05.686Z,2.53
2022-09-26T10:04:27.844Z,1.35
2022-09-26T10:08:38.711Z,1.95
2022-09-26T10:12:50.700Z,2.45
2022-09-26T10:17:26.694Z,5.60
2022-09-26T10:21:33.966Z,3.22
2022-09-26T10:25:43.688Z,1.48
2022-09-26T10:29:53.964Z,3.22
2022-09-26T10:34:07.709Z,4.53
2022-09-26T10:38:28.712Z,1.95
2022-09-26T10:42:38.698Z,2.75
2022-09-26T10:46:45.413Z,5.13
2022-09-26T10:50:59.787Z,4.07
2022-09-26T10:55:13.736Z,5.20
2022-09-26T10:59:20.160Z,6.10
2022-09-26T11:03:32.766Z,3.03
2022-09-26T11:07:53.722Z,1.92
2022-09-26T11:12:03.695Z,4.00
2022-09-26T11:16:16.765Z,5.15
2022-09-26T11:20:28.632Z,2.38
2022-09-26T11:24:48.803Z,8.40
2022-09-26T11:29:01.722Z,4.28
2022-09-26T11:33:15.723Z,4.60
2022-09-26T11:37:40.735Z,1.60
2022-09-26T11:42:10.717Z,4.45
2022-09-26T11:46:41.759Z,4.05
2022-09-26T11:51:02.698Z,3.40
2022-09-26T11:55:27.767Z,2.63
2022-09-26T12:00:04.731Z,5.38
2022-09-26T12:04:45.821Z,6.68
2022-09-26T12:09:08.724Z,4.85
2022-09-26T12:13:31.756Z,3.10
2022-09-26T12:17:54.742Z,5.22
2022-09-26T12:22:27.715Z,2.85
2022-09-26T12:26:46.723Z,2.72
2022-09-26T12:31:07.911Z,3.65
2022-09-26T12:35:41.705Z,5.03
2022-09-26T12:40:08.724Z,5.35
2022-09-26T12:44:37.736Z,2.20
2022-09-26T12:49:05.707Z,3.58
2022-09-26T12:53:43.712Z,11.18
2022-09-26T12:58:07.738Z,3.40
2022-09-26T13:02:45.775Z,6.05
2022-09-26T13:07:20.500Z,6.53
2022-09-26T13:11:39.735Z,2.30
2022-09-26T13:16:11.800Z,4.57
2022-09-26T13:20:25.745Z,3.08
2022-09-26T13:24:43.038Z,3.85
2022-09-26T13:29:15.689Z,5.07
2022-09-26T13:33:27.733Z,6.95
2022-09-26T13:37:50.079Z,1.98
2022-09-26T13:42:08.741Z,2.35
2022-09-26T13:46:27.173Z,2.22
2022-09-26T13:50:45.742Z,4.53
2022-09-26T13:55:08.755Z,2.60
2022-09-26T13:59:42.765Z,1.90
2022-09-26T14:03:53.744Z,3.33
2022-09-26T14:08:26.751Z,2.30
2022-09-26T14:12:57.742Z,2.00
2022-09-26T14:17:10.733Z,1.40
2022-09-26T14:21:41.784Z,3.17
2022-09-26T14:26:11.728Z,1.65
2022-09-26T14:30:28.140Z,2.72
2022-09-26T14:34:43.939Z,1.58
2022-09-26T14:38:57.747Z,2.08
2022-09-26T14:43:38.189Z,3.00
2022-09-26T14:47:54.769Z,9.05
2022-09-26T14:52:01.831Z,3.70
2022-09-26T14:56:16.830Z,1.88
2022-09-26T15:00:46.782Z,1.77
2022-09-26T15:05:20.804Z,3.08
2022-09-26T15:09:34.867Z,3.10
2022-09-26T15:13:50.915Z,6.30
2022-09-26T15:18:03.744Z,15.80
2022-09-26T15:22:20.741Z,4.25
2022-09-26T15:26:27.828Z,2.53
2022-09-26T15:30:45.895Z,2.10
2022-09-26T15:34:55.774Z,2.92
2022-09-26T15:39:06.745Z,1.70
2022-09-26T15:43:22.928Z,3.40
2022-09-26T15:47:47.753Z,8.88
2022-09-26T15:52:01.753Z,385.23
2022-09-26T15:56:14.751Z,187.10
2022-09-26T16:00:25.763Z,1000.22
2022-09-26T16:04:44.739Z,1837.90
2022-09-26T16:08:59.252Z,504.88
2022-09-26T16:13:08.750Z,1979.45
2022-09-26T16:17:27.767Z,899.53
2022-09-26T16:21:42.780Z,713.90
2022-09-26T16:26:02.784Z,117.68
2022-09-26T16:30:49.837Z,12.85
2022-09-26T16:35:29.370Z,10.32
2022-09-26T16:39:47.798Z,3.35
2022-09-26T16:43:55.590Z,78.20
2022-09-26T16:48:05.824Z,77.68
2022-09-26T16:52:37.783Z,2.75
2022-09-26T16:56:50.882Z,4.50
2022-09-26T17:01:11.326Z,205.82
2022-09-26T17:05:18.881Z,260.98
2022-09-26T17:09:23.675Z,5.50
2022-09-26T17:13:34.122Z,6.13
2022-09-26T17:17:38.402Z,3.53
2022-09-26T17:21:41.767Z,2.95
2022-09-26T17:25:48.302Z,3.45
2022-09-26T17:29:55.287Z,4.13
2022-09-26T17:33:58.960Z,4.28
2022-09-26T17:38:02.849Z,5.88
2022-09-26T17:42:06.143Z,6.85
2022-09-26T17:46:15.491Z,2.63
2022-09-26T17:50:24.514Z,5.55
2022-09-26T17:54:31.665Z,2.80
2022-09-26T17:58:36.745Z,4.07
2022-09-26T18:02:44.633Z,3.92
2022-09-26T18:06:48.120Z,3.72
2022-09-26T18:10:55.198Z,3.00
2022-09-26T18:15:00.099Z,3.67
2022-09-26T18:19:07.558Z,5.10
2022-09-26T18:23:17.359Z,6.63
2022-09-26T18:27:22.293Z,5.13
2022-09-26T18:31:29.829Z,6.75
2022-09-26T18:35:34.583Z,3.85
2022-09-26T18:39:37.843Z,6.03
2022-09-26T18:43:42.877Z,16.80
2022-09-26T18:47:46.295Z,3.70
2022-09-26T18:51:50.894Z,6.32
2022-09-26T18:56:11.680Z,7.38
2022-09-26T19:00:15.128Z,4.72
2022-09-26T19:04:20.405Z,4.60
2022-09-26T19:08:34.193Z,6.03
2022-09-26T19:12:39.749Z,4.53
2022-09-26T19:16:43.692Z,4.55
2022-09-26T19:20:47.247Z,5.38
2022-09-26T19:24:55.246Z,6.07
2022-09-26T19:29:00.538Z,3.70
2022-09-26T19:33:03.788Z,6.93
2022-09-26T19:37:09.915Z,14.18
2022-09-26T19:41:14.753Z,3.97
2022-09-26T19:45:18.723Z,7.10
2022-09-26T19:49:29.959Z,2.47
2022-09-26T19:53:36.238Z,1.52
2022-09-26T19:57:40.904Z,4.03
2022-09-26T20:01:46.115Z,2.05
2022-09-26T20:05:50.907Z,1.92
2022-09-26T20:09:54.869Z,1.75
2022-09-26T20:14:17.177Z,1.38
2022-09-26T20:18:22.756Z,3.65
2022-09-26T20:22:26.124Z,1.80
2022-09-26T20:26:30.759Z,3.08
2022-09-26T20:30:54.532Z,1.77
2022-09-26T20:35:03.561Z,1.50
2022-09-26T20:39:13.081Z,6.10
2022-09-26T20:43:25.338Z,2.47
2022-09-26T20:47:30.626Z,1.75
2022-09-26T20:51:35.228Z,2.35
2022-09-26T20:55:43.212Z,3.38
2022-09-26T20:59:47.368Z,1.73
2022-09-26T21:03:55.242Z,2.38
2022-09-26T21:08:00.378Z,1.92
2022-09-26T21:12:03.723Z,1.80
2022-09-26T21:16:07.663Z,1.88
2022-09-26T21:20:16.493Z,2.60
2022-09-26T21:24:25.140Z,6.18
2022-09-26T21:28:29.532Z,4.15
2022-09-26T21:32:32.723Z,2.63
2022-09-26T21:36:40.476Z,3.92
2022-09-26T21:40:45.269Z,2.40
2022-09-26T21:44:54.363Z,2.50
2022-09-26T21:48:57.751Z,3.05
2022-09-26T21:53:07.946Z,2.78
2022-09-26T21:57:13.281Z,2.50
2022-09-26T22:01:16.532Z,3.25
2022-09-26T22:05:19.882Z,3.63
2022-09-26T22:09:24.417Z,2.53
2022-09-26T22:13:27.599Z,2.40
2022-09-26T22:17:30.735Z,2.60
2022-09-26T22:21:34.163Z,4.47
2022-09-26T22:25:42.834Z,4.28
2022-09-26T22:29:46.231Z,4.57
2022-09-26T22:33:49.518Z,2.95
2022-09-26T22:37:52.721Z,5.00
2022-09-26T22:41:57.228Z,4.63
2022-09-26T22:46:03.356Z,3.83
2022-09-26T22:50:07.245Z,2.72
2022-09-26T22:54:10.439Z,4.90
2022-09-26T22:58:15.075Z,3.75
2022-09-26T23:02:18.267Z,3.92
2022-09-26T23:06:22.682Z,3.42
2022-09-26T23:10:25.837Z,3.88
2022-09-26T23:14:30.440Z,7.63
2022-09-26T23:18:34.844Z,3.28
2022-09-26T23:22:39.857Z,4.55
2022-09-26T23:26:42.976Z,6.05
2022-09-26T23:30:47.814Z,4.40
2022-09-26T23:34:51.019Z,4.15
2022-09-26T23:38:54.545Z,6.05
2022-09-26T23:42:57.795Z,8.00
2022-09-26T23:47:04.340Z,3.63
2022-09-26T23:51:07.467Z,10.52
2022-09-26T23:55:11.744Z,5.80
2022-09-26T23:59:15.037Z,8.35
